createdAt,value
2018-06-22T14:36:36.392Z,48.00
2018-06-22T14:39:07.592Z,45.00
2018-06-22T14:41:36.081Z,44.20
2018-06-22T14:44:04.983Z,40.40
2018-06-22T14:46:33.467Z,36.80
2018-06-22T14:49:01.926Z,34.90
2018-06-22T14:51:30.397Z,32.50
2018-06-22T14:54:04.223Z,34.70
2018-06-22T14:56:38.222Z,36.20
2018-06-22T14:59:12.154Z,40.50
2018-06-22T15:01:45.856Z,43.60
2018-06-22T15:04:19.738Z,44.40
2018-06-22T15:06:53.589Z,47.30
2018-06-22T15:09:22.189Z,45.30
2018-06-22T15:11:50.691Z,40.20
2018-06-22T15:14:19.231Z,41.70
2018-06-22T15:16:47.811Z,42.70
2018-06-22T15:19:16.473Z,45.00
2018-06-22T15:21:45.056Z,45.80
2018-06-22T15:24:13.716Z,46.70
2018-06-22T15:26:42.886Z,45.10
2018-06-22T15:29:11.564Z,46.40
2018-06-22T15:31:40.009Z,47.00
2018-06-22T15:35:17.635Z,48.20
2018-06-22T15:37:51.507Z,48.20
2018-06-22T15:40:25.300Z,50.50
2018-06-22T15:42:59.105Z,49.70
2018-06-22T15:45:33.072Z,50.40
2018-06-22T15:48:06.897Z,50.30
2018-06-22T15:50:40.850Z,49.60
2018-06-22T15:53:14.578Z,50.20
2018-06-22T15:55:45.452Z,49.70
2018-06-22T15:58:13.959Z,49.90
2018-06-22T16:00:42.506Z,47.10
2018-06-22T16:03:16.199Z,45.70
2018-06-22T16:05:44.718Z,44.50
2018-06-22T16:08:13.179Z,45.70
2018-06-22T16:10:41.761Z,44.70
2018-06-22T16:13:15.711Z,45.20
2018-06-22T16:15:49.503Z,45.80
2018-06-22T16:18:23.265Z,45.80
2018-06-22T16:20:57.064Z,44.90
2018-06-22T16:23:30.972Z,46.40
2018-06-22T16:26:04.835Z,45.10
2018-06-22T16:28:33.473Z,46.60
2018-06-22T16:31:01.973Z,47.80
2018-06-22T16:33:30.654Z,48.20
2018-06-22T16:35:59.148Z,48.70
2018-06-22T16:38:27.614Z,49.20
2018-06-22T16:40:56.188Z,49.90
2018-06-22T16:43:24.789Z,50.00
2018-06-22T16:45:53.501Z,51.20
2018-06-22T16:48:21.950Z,50.50
2018-06-22T16:50:50.391Z,50.40
2018-06-22T16:53:18.921Z,49.50
2018-06-22T16:55:47.444Z,49.20
2018-06-22T16:58:21.388Z,49.40
2018-06-22T17:00:50.058Z,50.60
2018-06-22T17:03:18.659Z,50.70
2018-06-22T17:05:47.213Z,50.70
2018-06-22T17:08:21.070Z,51.90
2018-06-22T17:10:54.907Z,51.60
2018-06-22T17:13:28.884Z,51.20
2018-06-22T17:16:02.797Z,51.50
2018-06-22T17:18:36.647Z,51.90
2018-06-22T17:21:05.066Z,51.70
2018-06-22T17:26:02.068Z,52.30
2018-06-22T17:28:30.659Z,52.40
2018-06-22T17:30:59.439Z,52.90
2018-06-22T17:33:32.712Z,53.50
2018-06-22T17:36:01.248Z,53.40
2018-06-22T17:38:30.202Z,53.60
2018-06-22T17:40:58.917Z,53.10
2018-06-22T17:43:27.627Z,53.20
2018-06-22T17:45:56.137Z,54.20
2018-06-22T17:48:24.777Z,53.40
2018-06-22T17:50:53.377Z,53.30
2018-06-22T17:53:21.968Z,54.20
2018-06-22T17:55:50.658Z,55.20
2018-06-22T17:58:19.332Z,54.80
2018-06-22T18:00:53.029Z,53.90
2018-06-22T18:03:27.602Z,53.80
2018-06-22T18:06:01.740Z,54.30
2018-06-22T18:08:35.763Z,55.60
2018-06-22T18:11:09.681Z,56.10
2018-06-22T18:13:38.255Z,55.90
2018-06-22T18:16:06.952Z,55.90
2018-06-22T18:18:35.856Z,56.50
2018-06-22T18:21:04.510Z,56.30
2018-06-22T18:23:33.224Z,56.20
2018-06-22T18:26:01.730Z,56.90
2018-06-22T18:28:30.629Z,57.50
2018-06-22T18:30:59.159Z,58.10
2018-06-22T18:35:55.852Z,56.90
2018-06-22T18:38:24.386Z,57.20
2018-06-22T18:40:53.126Z,57.70
2018-06-22T18:43:27.075Z,58.10
2018-06-22T18:48:24.443Z,57.80
2018-06-22T18:50:53.001Z,58.40
2018-06-22T18:53:26.776Z,58.30
2018-06-22T18:56:00.891Z,57.10
2018-06-22T18:58:34.778Z,58.30
2018-06-22T19:01:08.709Z,57.80
2018-06-22T19:03:42.492Z,58.30
2018-06-22T19:06:11.088Z,56.70
2018-06-22T19:08:39.766Z,55.20
2018-06-22T19:11:08.301Z,55.70
2018-06-22T19:13:37.053Z,55.00
2018-06-22T19:16:05.637Z,55.40
2018-06-22T19:18:34.304Z,56.00
2018-06-22T19:21:02.932Z,55.60
2018-06-22T19:23:31.590Z,55.80
2018-06-22T19:26:00.088Z,55.90
2018-06-22T19:28:28.784Z,55.90
2018-06-22T19:30:57.433Z,55.50
2018-06-22T19:33:27.018Z,57.20
2018-06-22T19:35:55.626Z,56.80
2018-06-22T19:38:24.682Z,56.40
2018-06-22T19:40:53.226Z,56.70
2018-06-22T19:43:27.211Z,57.60
2018-06-22T19:46:01.022Z,59.00
2018-06-22T19:49:33.942Z,60.00
2018-06-22T19:52:07.748Z,60.60
2018-06-22T19:54:36.292Z,62.10
2018-06-22T19:57:04.759Z,63.20
2018-06-22T19:59:33.253Z,64.00
2018-06-22T20:02:01.840Z,64.70
2018-06-22T20:04:30.331Z,66.60
2018-06-22T20:06:58.909Z,67.20
2018-06-22T20:09:27.506Z,67.70
2018-06-22T20:11:56.056Z,68.20
2018-06-22T20:14:25.428Z,70.00
2018-06-22T20:16:54.836Z,70.70
2018-06-22T20:19:23.765Z,70.50
2018-06-22T20:21:52.339Z,71.60
2018-06-22T20:24:25.056Z,71.90
2018-06-22T20:29:22.172Z,73.20
2018-06-22T20:31:50.679Z,74.40
2018-06-22T20:34:24.707Z,75.00
2018-06-22T20:37:59.410Z,75.50
2018-06-22T20:40:33.397Z,75.30
2018-06-22T20:43:06.241Z,75.60
2018-06-22T20:45:39.154Z,75.70
2018-06-22T20:48:13.172Z,76.80
2018-06-22T20:50:42.037Z,77.00
2018-06-22T20:53:10.524Z,76.90
2018-06-22T20:55:39.077Z,77.20
2018-06-22T20:58:08.020Z,78.00
2018-06-22T21:00:36.588Z,77.70
2018-06-22T21:03:05.073Z,77.10
2018-06-22T21:05:33.731Z,78.20
2018-06-22T21:08:02.291Z,79.00
2018-06-22T21:10:31.135Z,78.70
2018-06-22T21:13:00.003Z,77.10
2018-06-22T21:15:28.640Z,76.90
2018-06-22T21:17:57.161Z,76.80
2018-06-22T21:20:25.780Z,76.60
2018-06-22T21:22:54.236Z,77.00
2018-06-22T21:25:22.760Z,77.20
2018-06-22T21:27:56.512Z,77.60
2018-06-22T21:30:30.438Z,76.80
2018-06-22T21:33:04.259Z,77.20
2018-06-22T21:35:37.958Z,77.90
2018-06-22T21:38:11.637Z,79.30
2018-06-22T21:40:40.132Z,79.60
2018-06-22T21:43:08.736Z,80.00
2018-06-22T21:45:37.763Z,80.40
2018-06-22T21:48:06.370Z,80.50
2018-06-22T21:50:34.868Z,80.30
2018-06-22T21:53:03.404Z,79.30
2018-06-22T21:55:31.920Z,80.20
2018-06-22T21:58:00.499Z,82.40
2018-06-22T22:00:31.655Z,83.00
2018-06-22T22:03:01.164Z,83.80
2018-06-22T22:05:30.547Z,84.40
2018-06-22T22:07:59.703Z,84.80
2018-06-22T22:10:33.495Z,84.80
2018-06-22T22:13:01.982Z,84.80
2018-06-22T22:15:30.480Z,84.70
2018-06-22T22:17:59.120Z,85.40
2018-06-22T22:20:27.597Z,86.00
2018-06-22T22:22:56.134Z,86.00
2018-06-22T22:25:24.850Z,86.30
2018-06-22T22:27:53.569Z,86.80
2018-06-22T22:30:22.188Z,86.60
2018-06-22T22:32:50.699Z,87.10
2018-06-22T22:35:19.224Z,86.70
2018-06-22T22:37:48.022Z,86.80
2018-06-22T22:40:16.604Z,87.10
2018-06-22T22:42:45.243Z,87.50
2018-06-22T22:45:13.816Z,87.50
2018-06-22T22:47:42.274Z,87.40
2018-06-22T22:50:11.062Z,87.60
2018-06-22T22:52:39.552Z,88.20
2018-06-22T22:55:08.474Z,88.90
2018-06-22T22:57:36.945Z,89.60
2018-06-22T23:00:05.636Z,89.80
2018-06-22T23:02:34.235Z,89.60
2018-06-22T23:05:03.072Z,89.50
2018-06-22T23:07:31.534Z,89.50
2018-06-22T23:10:00.029Z,89.30
2018-06-22T23:12:28.434Z,89.10
2018-06-22T23:14:57.119Z,89.70
2018-06-22T23:17:25.571Z,89.70
2018-06-22T23:19:54.047Z,89.40
2018-06-22T23:22:33.791Z,89.60
2018-06-22T23:25:02.585Z,89.80
2018-06-22T23:27:31.276Z,90.00
2018-06-22T23:30:00.827Z,90.00
2018-06-22T23:32:29.372Z,90.00
2018-06-22T23:34:57.795Z,90.10
2018-06-22T23:37:26.332Z,90.00
2018-06-22T23:39:54.818Z,90.30
2018-06-22T23:42:23.518Z,90.40
2018-06-22T23:44:51.985Z,90.70
2018-06-22T23:47:20.783Z,90.60
2018-06-22T23:49:49.327Z,90.90
2018-06-22T23:52:17.773Z,90.80
2018-06-22T23:54:46.569Z,90.50
2018-06-22T23:57:15.301Z,90.50
2018-06-22T23:59:43.977Z,90.60
